sensor_id;sensor_type;location;lat;lon;timestamp;P1;durP1;ratioP1;P2;durP2;ratioP2
51877;SDS011;37911;51.526;11.536;2024-02-26T00:01:41;5.30;;;3.95;;
51877;SDS011;37911;51.526;11.536;2024-02-26T00:04:44;5.15;;;3.30;;
51877;SDS011;37911;51.526;11.536;2024-02-26T00:07:50;5.13;;;3.55;;
51877;SDS011;37911;51.526;11.536;2024-02-26T00:10:53;3.65;;;2.90;;
51877;SDS011;37911;51.526;11.536;2024-02-26T00:13:57;6.15;;;3.72;;
51877;SDS011;37911;51.526;11.536;2024-02-26T00:17:00;5.45;;;3.72;;
51877;SDS011;37911;51.526;11.536;2024-02-26T00:20:04;6.57;;;4.10;;
51877;SDS011;37911;51.526;11.536;2024-02-26T00:23:13;3.38;;;2.50;;
51877;SDS011;37911;51.526;11.536;2024-02-26T00:26:17;5.20;;;3.75;;
51877;SDS011;37911;51.526;11.536;2024-02-26T00:29:20;7.00;;;3.72;;
51877;SDS011;37911;51.526;11.536;2024-02-26T00:32:24;4.35;;;3.38;;
51877;SDS011;37911;51.526;11.536;2024-02-26T00:35:28;5.22;;;3.95;;
51877;SDS011;37911;51.526;11.536;2024-02-26T00:38:34;4.38;;;3.60;;
51877;SDS011;37911;51.526;11.536;2024-02-26T00:41:39;4.35;;;3.63;;
51877;SDS011;37911;51.526;11.536;2024-02-26T00:44:43;4.47;;;4.05;;
51877;SDS011;37911;51.526;11.536;2024-02-26T00:47:46;4.13;;;2.90;;
51877;SDS011;37911;51.526;11.536;2024-02-26T00:50:50;6.03;;;4.25;;
51877;SDS011;37911;51.526;11.536;2024-02-26T00:53:56;5.93;;;3.97;;
51877;SDS011;37911;51.526;11.536;2024-02-26T00:56:59;6.18;;;3.75;;
51877;SDS011;37911;51.526;11.536;2024-02-26T01:00:02;4.10;;;3.70;;
51877;SDS011;37911;51.526;11.536;2024-02-26T01:03:08;3.67;;;3.08;;
51877;SDS011;37911;51.526;11.536;2024-02-26T01:06:12;6.85;;;3.80;;
51877;SDS011;37911;51.526;11.536;2024-02-26T01:09:18;5.15;;;3.92;;
51877;SDS011;37911;51.526;11.536;2024-02-26T01:12:21;5.60;;;3.70;;
51877;SDS011;37911;51.526;11.536;2024-02-26T01:15:24;6.82;;;3.60;;
51877;SDS011;37911;51.526;11.536;2024-02-26T01:18:28;4.45;;;3.63;;
51877;SDS011;37911;51.526;11.536;2024-02-26T01:21:31;5.30;;;3.67;;
51877;SDS011;37911;51.526;11.536;2024-02-26T01:24:37;5.15;;;3.58;;
51877;SDS011;37911;51.526;11.536;2024-02-26T01:27:40;7.18;;;3.92;;
51877;SDS011;37911;51.526;11.536;2024-02-26T01:30:44;6.65;;;3.97;;
51877;SDS011;37911;51.526;11.536;2024-02-26T01:33:47;8.68;;;3.75;;
51877;SDS011;37911;51.526;11.536;2024-02-26T01:36:50;5.68;;;3.30;;
51877;SDS011;37911;51.526;11.536;2024-02-26T01:39:56;6.60;;;3.97;;
51877;SDS011;37911;51.526;11.536;2024-02-26T01:42:59;7.25;;;3.75;;
51877;SDS011;37911;51.526;11.536;2024-02-26T01:46:03;5.40;;;3.15;;
51877;SDS011;37911;51.526;11.536;2024-02-26T01:49:06;5.28;;;3.55;;
51877;SDS011;37911;51.526;11.536;2024-02-26T01:52:14;3.80;;;3.03;;
51877;SDS011;37911;51.526;11.536;2024-02-26T01:55:22;6.90;;;3.20;;
51877;SDS011;37911;51.526;11.536;2024-02-26T01:58:26;5.30;;;3.20;;
51877;SDS011;37911;51.526;11.536;2024-02-26T02:01:31;6.85;;;4.28;;
51877;SDS011;37911;51.526;11.536;2024-02-26T02:04:35;5.65;;;3.85;;
51877;SDS011;37911;51.526;11.536;2024-02-26T02:07:39;5.80;;;4.18;;
51877;SDS011;37911;51.526;11.536;2024-02-26T02:10:46;4.60;;;3.63;;
51877;SDS011;37911;51.526;11.536;2024-02-26T02:13:50;3.95;;;3.55;;
51877;SDS011;37911;51.526;11.536;2024-02-26T02:16:53;4.75;;;3.65;;
51877;SDS011;37911;51.526;11.536;2024-02-26T02:19:56;6.82;;;5.05;;
51877;SDS011;37911;51.526;11.536;2024-02-26T02:23:02;7.28;;;4.05;;
51877;SDS011;37911;51.526;11.536;2024-02-26T02:26:06;6.13;;;4.05;;
51877;SDS011;37911;51.526;11.536;2024-02-26T02:29:09;5.50;;;4.18;;
51877;SDS011;37911;51.526;11.536;2024-02-26T02:32:13;5.70;;;3.28;;
51877;SDS011;37911;51.526;11.536;2024-02-26T02:35:17;4.03;;;3.58;;
51877;SDS011;37911;51.526;11.536;2024-02-26T02:38:23;4.28;;;3.53;;
51877;SDS011;37911;51.526;11.536;2024-02-26T02:41:27;4.22;;;3.58;;
51877;SDS011;37911;51.526;11.536;2024-02-26T02:44:32;3.88;;;3.03;;
51877;SDS011;37911;51.526;11.536;2024-02-26T02:47:35;5.55;;;3.95;;
51877;SDS011;37911;51.526;11.536;2024-02-26T02:50:39;5.95;;;3.90;;
51877;SDS011;37911;51.526;11.536;2024-02-26T02:53:45;7.00;;;3.95;;
51877;SDS011;37911;51.526;11.536;2024-02-26T02:56:48;6.40;;;3.95;;
51877;SDS011;37911;51.526;11.536;2024-02-26T02:59:51;7.13;;;3.85;;
51877;SDS011;37911;51.526;11.536;2024-02-26T03:02:54;7.53;;;4.38;;
51877;SDS011;37911;51.526;11.536;2024-02-26T03:05:58;5.28;;;3.72;;
51877;SDS011;37911;51.526;11.536;2024-02-26T03:09:04;7.60;;;4.60;;
51877;SDS011;37911;51.526;11.536;2024-02-26T03:12:07;5.38;;;3.63;;
51877;SDS011;37911;51.526;11.536;2024-02-26T03:15:10;5.00;;;3.85;;
51877;SDS011;37911;51.526;11.536;2024-02-26T03:18:14;5.65;;;3.78;;
51877;SDS011;37911;51.526;11.536;2024-02-26T03:21:17;5.18;;;3.75;;
51877;SDS011;37911;51.526;11.536;2024-02-26T03:24:23;5.05;;;3.72;;
51877;SDS011;37911;51.526;11.536;2024-02-26T03:27:26;6.07;;;4.35;;
51877;SDS011;37911;51.526;11.536;2024-02-26T03:30:30;6.25;;;4.88;;
51877;SDS011;37911;51.526;11.536;2024-02-26T03:33:34;8.38;;;4.50;;
51877;SDS011;37911;51.526;11.536;2024-02-26T03:36:37;6.78;;;4.65;;
51877;SDS011;37911;51.526;11.536;2024-02-26T03:39:43;5.68;;;3.92;;
51877;SDS011;37911;51.526;11.536;2024-02-26T03:42:47;8.43;;;4.43;;
51877;SDS011;37911;51.526;11.536;2024-02-26T03:45:52;7.70;;;4.70;;
51877;SDS011;37911;51.526;11.536;2024-02-26T03:48:56;6.57;;;4.82;;
51877;SDS011;37911;51.526;11.536;2024-02-26T03:51:59;7.20;;;4.93;;
51877;SDS011;37911;51.526;11.536;2024-02-26T03:55:05;7.93;;;4.70;;
51877;SDS011;37911;51.526;11.536;2024-02-26T03:58:09;9.50;;;4.65;;
51877;SDS011;37911;51.526;11.536;2024-02-26T04:01:15;8.30;;;6.20;;
51877;SDS011;37911;51.526;11.536;2024-02-26T04:13:30;8.27;;;6.57;;
51877;SDS011;37911;51.526;11.536;2024-02-26T06:13:04;15.75;;;9.48;;
51877;SDS011;37911;51.526;11.536;2024-02-26T06:16:08;12.93;;;8.80;;
51877;SDS011;37911;51.526;11.536;2024-02-26T06:19:11;12.13;;;8.80;;
51877;SDS011;37911;51.526;11.536;2024-02-26T06:22:14;16.30;;;8.52;;
51877;SDS011;37911;51.526;11.536;2024-02-26T06:25:18;12.38;;;8.40;;
51877;SDS011;37911;51.526;11.536;2024-02-26T06:28:23;18.17;;;9.45;;
51877;SDS011;37911;51.526;11.536;2024-02-26T06:40:41;16.00;;;9.60;;
51877;SDS011;37911;51.526;11.536;2024-02-26T06:43:47;13.95;;;9.48;;
51877;SDS011;37911;51.526;11.536;2024-02-26T06:46:50;14.30;;;9.82;;
51877;SDS011;37911;51.526;11.536;2024-02-26T06:49:54;14.13;;;9.18;;
51877;SDS011;37911;51.526;11.536;2024-02-26T06:52:58;10.60;;;7.45;;
51877;SDS011;37911;51.526;11.536;2024-02-26T06:56:01;15.95;;;8.73;;
51877;SDS011;37911;51.526;11.536;2024-02-26T06:59:07;12.63;;;8.40;;
51877;SDS011;37911;51.526;11.536;2024-02-26T07:02:11;15.55;;;8.40;;
51877;SDS011;37911;51.526;11.536;2024-02-26T07:05:14;13.20;;;7.40;;
51877;SDS011;37911;51.526;11.536;2024-02-26T07:08:17;10.10;;;7.55;;
51877;SDS011;37911;51.526;11.536;2024-02-26T07:11:21;12.10;;;7.55;;
51877;SDS011;37911;51.526;11.536;2024-02-26T07:14:27;11.02;;;8.55;;
51877;SDS011;37911;51.526;11.536;2024-02-26T07:17:31;12.60;;;7.72;;
51877;SDS011;37911;51.526;11.536;2024-02-26T07:20:34;8.57;;;7.15;;
51877;SDS011;37911;51.526;11.536;2024-02-26T07:23:37;12.25;;;7.65;;
51877;SDS011;37911;51.526;11.536;2024-02-26T07:26:41;12.98;;;8.00;;
51877;SDS011;37911;51.526;11.536;2024-02-26T07:41:59;12.43;;;8.60;;
51877;SDS011;37911;51.526;11.536;2024-02-26T07:45:05;11.07;;;8.47;;
51877;SDS011;37911;51.526;11.536;2024-02-26T07:48:09;15.95;;;9.07;;
51877;SDS011;37911;51.526;11.536;2024-02-26T07:57:20;17.15;;;9.65;;
51877;SDS011;37911;51.526;11.536;2024-02-26T08:24:53;13.20;;;8.97;;
51877;SDS011;37911;51.526;11.536;2024-02-26T08:46:22;11.52;;;7.25;;
51877;SDS011;37911;51.526;11.536;2024-02-26T08:49:26;9.55;;;7.80;;
51877;SDS011;37911;51.526;11.536;2024-02-26T08:52:29;11.52;;;7.90;;
51877;SDS011;37911;51.526;11.536;2024-02-26T08:55:33;10.40;;;7.72;;
51877;SDS011;37911;51.526;11.536;2024-02-26T08:58:36;10.55;;;6.95;;
51877;SDS011;37911;51.526;11.536;2024-02-26T09:01:42;12.50;;;7.82;;
51877;SDS011;37911;51.526;11.536;2024-02-26T09:04:46;11.88;;;8.40;;
51877;SDS011;37911;51.526;11.536;2024-02-26T09:07:51;11.25;;;7.78;;
51877;SDS011;37911;51.526;11.536;2024-02-26T09:10:55;13.50;;;8.93;;
51877;SDS011;37911;51.526;11.536;2024-02-26T09:13:58;18.20;;;9.57;;
51877;SDS011;37911;51.526;11.536;2024-02-26T09:17:04;13.63;;;8.45;;
51877;SDS011;37911;51.526;11.536;2024-02-26T10:46:22;12.68;;;6.38;;
51877;SDS011;37911;51.526;11.536;2024-02-26T10:49:26;10.77;;;6.22;;
51877;SDS011;37911;51.526;11.536;2024-02-26T10:52:33;13.50;;;6.90;;
51877;SDS011;37911;51.526;11.536;2024-02-26T11:01:45;6.50;;;5.30;;
51877;SDS011;37911;51.526;11.536;2024-02-26T11:04:50;8.50;;;5.85;;
51877;SDS011;37911;51.526;11.536;2024-02-26T11:07:56;10.50;;;7.28;;
51877;SDS011;37911;51.526;11.536;2024-02-26T11:11:00;7.35;;;5.32;;
51877;SDS011;37911;51.526;11.536;2024-02-26T11:14:03;8.85;;;5.70;;
51877;SDS011;37911;51.526;11.536;2024-02-26T11:17:08;9.98;;;6.32;;
51877;SDS011;37911;51.526;11.536;2024-02-26T11:23:19;8.18;;;6.10;;
51877;SDS011;37911;51.526;11.536;2024-02-26T11:47:55;8.98;;;6.25;;
51877;SDS011;37911;51.526;11.536;2024-02-26T11:50:59;7.70;;;6.20;;
51877;SDS011;37911;51.526;11.536;2024-02-26T11:54:04;9.57;;;6.05;;
51877;SDS011;37911;51.526;11.536;2024-02-26T12:00:27;11.27;;;6.38;;
51877;SDS011;37911;51.526;11.536;2024-02-26T12:03:32;11.90;;;6.68;;
51877;SDS011;37911;51.526;11.536;2024-02-26T12:06:40;10.40;;;6.72;;
51877;SDS011;37911;51.526;11.536;2024-02-26T12:09:47;10.85;;;7.13;;
51877;SDS011;37911;51.526;11.536;2024-02-26T12:12:55;12.68;;;6.88;;
51877;SDS011;37911;51.526;11.536;2024-02-26T12:16:02;9.85;;;6.55;;
51877;SDS011;37911;51.526;11.536;2024-02-26T12:19:06;10.02;;;8.20;;
51877;SDS011;37911;51.526;11.536;2024-02-26T12:22:11;7.82;;;7.03;;
51877;SDS011;37911;51.526;11.536;2024-02-26T12:25:18;10.32;;;7.10;;
51877;SDS011;37911;51.526;11.536;2024-02-26T12:28:27;8.90;;;6.60;;
51877;SDS011;37911;51.526;11.536;2024-02-26T12:31:30;11.93;;;7.28;;
51877;SDS011;37911;51.526;11.536;2024-02-26T12:46:49;11.20;;;7.60;;
51877;SDS011;37911;51.526;11.536;2024-02-26T12:59:06;11.45;;;7.32;;
51877;SDS011;37911;51.526;11.536;2024-02-26T13:02:10;11.98;;;8.30;;
51877;SDS011;37911;51.526;11.536;2024-02-26T13:05:13;11.32;;;8.70;;
51877;SDS011;37911;51.526;11.536;2024-02-26T13:08:18;13.38;;;8.05;;
51877;SDS011;37911;51.526;11.536;2024-02-26T13:11:24;10.63;;;8.02;;
51877;SDS011;37911;51.526;11.536;2024-02-26T13:14:29;14.68;;;8.30;;
51877;SDS011;37911;51.526;11.536;2024-02-26T13:17:34;12.18;;;7.88;;
51877;SDS011;37911;51.526;11.536;2024-02-26T13:20:37;13.30;;;7.68;;
51877;SDS011;37911;51.526;11.536;2024-02-26T13:23:41;11.50;;;7.72;;
51877;SDS011;37911;51.526;11.536;2024-02-26T13:26:49;12.43;;;7.68;;
51877;SDS011;37911;51.526;11.536;2024-02-26T13:30:04;13.48;;;8.23;;
51877;SDS011;37911;51.526;11.536;2024-02-26T13:36:15;33.97;;;20.83;;
51877;SDS011;37911;51.526;11.536;2024-02-26T13:39:21;44.10;;;27.13;;
51877;SDS011;37911;51.526;11.536;2024-02-26T13:42:28;43.50;;;26.20;;
51877;SDS011;37911;51.526;11.536;2024-02-26T13:45:33;33.58;;;21.00;;
51877;SDS011;37911;51.526;11.536;2024-02-26T13:48:40;32.20;;;19.98;;
51877;SDS011;37911;51.526;11.536;2024-02-26T13:51:44;19.50;;;13.18;;
51877;SDS011;37911;51.526;11.536;2024-02-26T13:54:47;25.20;;;17.25;;
51877;SDS011;37911;51.526;11.536;2024-02-26T13:57:54;15.63;;;9.95;;
51877;SDS011;37911;51.526;11.536;2024-02-26T14:00:58;18.98;;;13.15;;
51877;SDS011;37911;51.526;11.536;2024-02-26T14:04:03;22.27;;;13.70;;
51877;SDS011;37911;51.526;11.536;2024-02-26T14:07:09;14.35;;;10.30;;
51877;SDS011;37911;51.526;11.536;2024-02-26T14:10:14;20.33;;;13.07;;
51877;SDS011;37911;51.526;11.536;2024-02-26T14:13:20;14.57;;;9.85;;
51877;SDS011;37911;51.526;11.536;2024-02-26T14:16:24;12.65;;;8.27;;
51877;SDS011;37911;51.526;11.536;2024-02-26T14:19:27;17.63;;;11.20;;
51877;SDS011;37911;51.526;11.536;2024-02-26T14:22:30;14.27;;;9.55;;
51877;SDS011;37911;51.526;11.536;2024-02-26T14:25:34;19.25;;;10.98;;
51877;SDS011;37911;51.526;11.536;2024-02-26T14:28:39;19.60;;;13.80;;
51877;SDS011;37911;51.526;11.536;2024-02-26T14:31:43;19.52;;;11.65;;
51877;SDS011;37911;51.526;11.536;2024-02-26T14:34:46;15.02;;;10.05;;
51877;SDS011;37911;51.526;11.536;2024-02-26T14:37:49;14.98;;;8.98;;
51877;SDS011;37911;51.526;11.536;2024-02-26T14:40:53;13.38;;;7.97;;
51877;SDS011;37911;51.526;11.536;2024-02-26T14:43:59;22.05;;;15.05;;
51877;SDS011;37911;51.526;11.536;2024-02-26T14:47:03;19.77;;;13.85;;
51877;SDS011;37911;51.526;11.536;2024-02-26T14:50:07;15.48;;;10.70;;
51877;SDS011;37911;51.526;11.536;2024-02-26T14:53:11;18.88;;;11.63;;
51877;SDS011;37911;51.526;11.536;2024-02-26T14:56:14;16.20;;;10.98;;
51877;SDS011;37911;51.526;11.536;2024-02-26T14:59:21;19.08;;;12.60;;
51877;SDS011;37911;51.526;11.536;2024-02-26T15:02:25;16.65;;;10.30;;
51877;SDS011;37911;51.526;11.536;2024-02-26T15:05:28;53.35;;;30.75;;
51877;SDS011;37911;51.526;11.536;2024-02-26T15:08:32;91.90;;;56.92;;
51877;SDS011;37911;51.526;11.536;2024-02-26T15:11:37;40.65;;;27.05;;
51877;SDS011;37911;51.526;11.536;2024-02-26T15:14:43;62.85;;;39.80;;
51877;SDS011;37911;51.526;11.536;2024-02-26T15:17:47;51.42;;;34.47;;
51877;SDS011;37911;51.526;11.536;2024-02-26T15:20:51;42.03;;;27.80;;
51877;SDS011;37911;51.526;11.536;2024-02-26T15:23:55;68.60;;;43.42;;
51877;SDS011;37911;51.526;11.536;2024-02-26T15:26:58;69.20;;;43.92;;
51877;SDS011;37911;51.526;11.536;2024-02-26T15:30:05;29.52;;;18.80;;
51877;SDS011;37911;51.526;11.536;2024-02-26T15:33:09;13.40;;;9.40;;
51877;SDS011;37911;51.526;11.536;2024-02-26T15:36:13;9.93;;;8.20;;
51877;SDS011;37911;51.526;11.536;2024-02-26T15:39:16;14.77;;;9.65;;
51877;SDS011;37911;51.526;11.536;2024-02-26T15:42:20;9.82;;;7.25;;
51877;SDS011;37911;51.526;11.536;2024-02-26T15:45:28;8.68;;;6.63;;
51877;SDS011;37911;51.526;11.536;2024-02-26T15:48:33;13.13;;;8.52;;
51877;SDS011;37911;51.526;11.536;2024-02-26T15:51:39;23.17;;;13.88;;
51877;SDS011;37911;51.526;11.536;2024-02-26T15:54:42;11.55;;;8.15;;
51877;SDS011;37911;51.526;11.536;2024-02-26T15:57:45;12.25;;;8.20;;
51877;SDS011;37911;51.526;11.536;2024-02-26T16:00:51;23.08;;;13.00;;
51877;SDS011;37911;51.526;11.536;2024-02-26T16:03:55;13.50;;;9.05;;
51877;SDS011;37911;51.526;11.536;2024-02-26T16:06:59;23.15;;;14.35;;
51877;SDS011;37911;51.526;11.536;2024-02-26T16:10:09;12.73;;;8.88;;
51877;SDS011;37911;51.526;11.536;2024-02-26T16:13:12;9.68;;;7.07;;
51877;SDS011;37911;51.526;11.536;2024-02-26T16:16:19;14.38;;;9.15;;
51877;SDS011;37911;51.526;11.536;2024-02-26T16:19:26;15.65;;;9.32;;
51877;SDS011;37911;51.526;11.536;2024-02-26T16:22:29;9.43;;;6.50;;
51877;SDS011;37911;51.526;11.536;2024-02-26T16:25:33;11.00;;;6.95;;
51877;SDS011;37911;51.526;11.536;2024-02-26T16:28:37;11.45;;;7.72;;
51877;SDS011;37911;51.526;11.536;2024-02-26T16:31:43;34.22;;;19.77;;
51877;SDS011;37911;51.526;11.536;2024-02-26T16:34:47;13.20;;;9.85;;
51877;SDS011;37911;51.526;11.536;2024-02-26T16:37:50;15.55;;;10.07;;
51877;SDS011;37911;51.526;11.536;2024-02-26T16:40:53;19.70;;;13.20;;
51877;SDS011;37911;51.526;11.536;2024-02-26T16:43:57;15.45;;;10.85;;
51877;SDS011;37911;51.526;11.536;2024-02-26T16:47:03;18.23;;;11.85;;
51877;SDS011;37911;51.526;11.536;2024-02-26T16:50:08;19.98;;;12.63;;
51877;SDS011;37911;51.526;11.536;2024-02-26T16:53:13;63.15;;;36.10;;
51877;SDS011;37911;51.526;11.536;2024-02-26T16:56:16;34.72;;;23.33;;
51877;SDS011;37911;51.526;11.536;2024-02-26T16:59:19;26.70;;;16.90;;
51877;SDS011;37911;51.526;11.536;2024-02-26T17:02:30;30.70;;;21.02;;
51877;SDS011;37911;51.526;11.536;2024-02-26T17:05:33;31.52;;;19.15;;
51877;SDS011;37911;51.526;11.536;2024-02-26T17:08:36;17.25;;;11.75;;
51877;SDS011;37911;51.526;11.536;2024-02-26T17:11:41;23.38;;;16.40;;
51877;SDS011;37911;51.526;11.536;2024-02-26T17:14:46;46.38;;;27.95;;
